Darstellungsparameter: Aktuell verwendete Einstellungen:
Skalierung der Graphiken ... ?
xyx+y,   Skalierungsfaktor:      Skalierung: Modus: x, Faktor: 1
Darstellungszeitraum ... ?
Vom - - bis: - -   Zeitraum: 03.05.2020 - 02.08.2020
Min/Max/Avg-Anzeige ... ?
Zeige MMA aktuell
Zeige MMA Monat
Zeige MMA alles
Zeige --A aktuell
Zeige --A Monat
Zeige --A alles
Keine MMA-Anzeige
MMA:
Keine MMA-Graphiken
MMA-Basis: 03.05.2020 - 02.08.2020
Quicknavigation für Darstellung... ?
Tage:      1T, 2T, 3T, 5T -1T -2T -3T -5T +1T +2T +3T +5T
Wochen: 1W, 2W, 3W -1W -2W -3W +1W +2W +3W
Monate: 1M, 3M, 6M -1M -3M -6M +1M +3M +6M
Jahre:    1J, 3J, 5J, 10J -1J -3J -5J -10J +1J +3J +5J +10J
Nutze für die Darstellung ... ?
Originaldaten oder ...
Mittelwerte Minima Maxima auf...
Stundenbasis Tagesbasis Wochenbasis
Monatsbasis Jahresbasis      Datenbasis: Mittelwerte auf Tagesbasis
Darstellen als:
Statistik (Auto) Statistik J:M      Darstellung:
Zur Graphik,    zurück zur Übersicht aller Sensoren.
 
Tabellarische Datenbersicht: ?
 
Sensor: Nr:Datum:Temp:Feuchte:
Aussen-T/F 1 03-05-2020 00:00:00 10.75833 C 34.4653 %
2 04-05-2020 00:00:00 11.74722 C 36.3681 %
3 05-05-2020 00:00:00 11.26667 C 32.2083 %
4 06-05-2020 00:00:00 11.08403 C 30.6181 %
5 07-05-2020 00:00:00 13.50764 C 30.8056 %
6 08-05-2020 00:00:00 15.85208 C 29.3056 %
7 09-05-2020 00:00:00 16.28611 C 29.0139 %
8 10-05-2020 00:00:00 15.97153 C 36.6389 %
9 11-05-2020 00:00:00 9.26875 C 32.4028 %
10 12-05-2020 00:00:00 8.55764 C 29.8264 %
11 13-05-2020 00:00:00 9.41528 C 30.4444 %
12 14-05-2020 00:00:00 9.74792 C 29.2917 %
13 15-05-2020 00:00:00 11.27986 C 28.5903 %
14 16-05-2020 00:00:00 11.95833 C 29.2986 %
15 17-05-2020 00:00:00 14.25556 C 28.0625 %
16 18-05-2020 00:00:00 16.81042 C 28.8681 %
17 19-05-2020 00:00:00 17.67986 C 29.2153 %
18 20-05-2020 00:00:00 18.90417 C 29.3611 %
19 21-05-2020 00:00:00 20.425 C 29.2361 %
20 22-05-2020 00:00:00 20.27222 C 29.9583 %
21 23-05-2020 00:00:00 13.65972 C 37.1111 %
22 24-05-2020 00:00:00 13.68056 C 31.3750 %
23 25-05-2020 00:00:00 16.41181 C 30.5625 %
24 26-05-2020 00:00:00 15.69306 C 31.7292 %
25 27-05-2020 00:00:00 18.09444 C 29.6597 %
Sensor: Nr:Datum:Temp:Feuchte:
Aussen-T/F 26 28-05-2020 00:00:00 18.81736 C 24.7153 %
27 29-05-2020 00:00:00 16.43681 C 26.8056 %
28 30-05-2020 00:00:00 16.61667 C 24.5000 %
29 31-05-2020 00:00:00 16.21736 C 26.2153 %
30 01-06-2020 00:00:00 19.27153 C 26.8889 %
31 02-06-2020 00:00:00 21.30486 C 25.6250 %
32 03-06-2020 00:00:00 21.06597 C 25.1042 %
33 04-06-2020 00:00:00 14.39583 C 39.8403 %
34 05-06-2020 00:00:00 11.4625 C 37.4306 %
35 06-06-2020 00:00:00 12.76111 C 34.0347 %
36 07-06-2020 00:00:00 13.84514 C 31.7083 %
37 08-06-2020 00:00:00 15.57014 C 31.2986 %
38 09-06-2020 00:00:00 14.49861 C 37.8333 %
39 10-06-2020 00:00:00 15.8625 C 35.7431 %
40 11-06-2020 00:00:00 15.99028 C 36.5486 %
41 12-06-2020 00:00:00 20.73403 C 31.5139 %
42 13-06-2020 00:00:00 21.73403 C 27.8889 %
43 14-06-2020 00:00:00 19.10208 C 32.2222 %
44 15-06-2020 00:00:00 19.14306 C 31.8264 %
45 16-06-2020 00:00:00 18.22986 C 36.8750 %
46 17-06-2020 00:00:00 18.10486 C 36.5347 %
47 18-06-2020 00:00:00 19.72569 C 31.4722 %
48 19-06-2020 00:00:00 17.11181 C 35.9028 %
49 20-06-2020 00:00:00 17.44514 C 34.6319 %
50 21-06-2020 00:00:00 20.65208 C 31.4097 %
Sensor: Nr:Datum:Temp:Feuchte:
Aussen-T/F 51 22-06-2020 00:00:00 20.03958 C 29.0347 %
52 23-06-2020 00:00:00 21.27708 C 29.8472 %
53 24-06-2020 00:00:00 22.32569 C 27.2222 %
54 25-06-2020 00:00:00 22.52222 C 26.3264 %
55 26-06-2020 00:00:00 23.33542 C 29.4306 %
56 27-06-2020 00:00:00 23.59236 C 27.9236 %
57 28-06-2020 00:00:00 20.15625 C 29.1181 %
58 29-06-2020 00:00:00 18.91667 C 29.3750 %
59 30-06-2020 00:00:00 17.63611 C 29.2500 %
60 01-07-2020 00:00:00 22.10764 C 27.2500 %
61 02-07-2020 00:00:00 19.35903 C 32.8611 %
62 03-07-2020 00:00:00 18.4375 C 30.9306 %
63 04-07-2020 00:00:00 19.56528 C 27.8056 %
64 05-07-2020 00:00:00 23.42222 C 26.5069 %
65 06-07-2020 00:00:00 16.97292 C 27.8264 %
66 07-07-2020 00:00:00 16.98611 C 30.0903 %
67 08-07-2020 00:00:00 15.99444 C 36.0486 %
68 09-07-2020 00:00:00 22.42361 C 30.2153 %
69 10-07-2020 00:00:00 18.77222 C 32.6042 %
70 11-07-2020 00:00:00 17.44167 C 29.9514 %
71 12-07-2020 00:00:00 18.36944 C 29.9792 %
72 13-07-2020 00:00:00 20.63333 C 27.9931 %
73 14-07-2020 00:00:00 19.57917 C 28.7153 %
74 15-07-2020 00:00:00 18.56806 C 29.6389 %
75 16-07-2020 00:00:00 16.03611 C 38.0625 %
Sensor: Nr:Datum:Temp:Feuchte:
Aussen-T/F 76 17-07-2020 00:00:00 19.64375 C 32.7222 %
77 18-07-2020 00:00:00 20.24406 C 31.3636 %
78 19-07-2020 00:00:00 23.3625 C 27.6597 %
79 20-07-2020 00:00:00 20.29931 C 28.6111 %
80 21-07-2020 00:00:00 18.99375 C 27.2083 %
81 22-07-2020 00:00:00 18.52222 C 28.8542 %
82 23-07-2020 00:00:00 20.38472 C 26.9306 %
83 24-07-2020 00:00:00 21.93889 C 24.3333 %
84 25-07-2020 00:00:00 21.73681 C 27.9583 %
85 26-07-2020 00:00:00 21.61944 C 29.2361 %
86 27-07-2020 00:00:00 22.74306 C 28.1181 %
87 28-07-2020 00:00:00 23.63681 C 22.2569 %
88 29-07-2020 00:00:00 20.21875 C 27.2083 %
89 30-07-2020 00:00:00 21.74306 C 27.3958 %
90 31-07-2020 00:00:00 25.38125 C 25.3056 %
91 01-08-2020 00:00:00 22.83611 C 31.0000 %
92 02-08-2020 00:00:00 22.3625 C 29.5694 %
Sensor: Nr:Datum:Temp:Feuchte:
G-T/H 1 03-05-2020 00:00:00 12.50278 C 65.6389 %
2 04-05-2020 00:00:00 13.3096 C 66.6560 %

Maximal/Minimal-Werte vom 03.05.2020 - 02.08.2020

Sensor Min Max Avg
Temp
(Aussen-T/F)
0.1 °C
12-05-2020  06:14:17
43.5 °C
31-07-2020  17:11:17
17.92 °C
Feuchte
(Aussen-T/F)
20 %
03-05-2020  12:53:17
48 %
03-05-2020  05:03:17
30.31 %
Temp
(G-T/H)
11.9 °C
03-05-2020  08:23:18
13.4 °C
03-05-2020  23:53:17
12.88 °C
Feuchte
(G-T/H)
64 %
03-05-2020  05:23:17
67 %
04-05-2020  00:53:17
66.11 %

Die Daten stammen von einer Davis Vantage Pro 2 Wetter-Station und werden unter Linux mit der Software wview2wettercgi und aufbereitet. Alle Angaben erfolgen ohne Gewähr für ihre Vollständigkeit oder Richtigkeit.
Kontakt: Rainer Krienke krienke@uni-koblenz.de . Meine Webseiten an der Uni Koblenz oder privat.
Version: $Revision: 0.78 $